sensor_id;sensor_type;location;lat;lon;timestamp;P1;durP1;ratioP1;P2;durP2;ratioP2
19291;SDS011;9779;51.756;7.450;2022-12-24T00:00:12;12.07;;;4.00;;
19291;SDS011;9779;51.756;7.450;2022-12-24T00:02:38;16.10;;;4.20;;
19291;SDS011;9779;51.756;7.450;2022-12-24T00:05:04;16.03;;;4.40;;
19291;SDS011;9779;51.756;7.450;2022-12-24T00:07:31;12.93;;;5.10;;
19291;SDS011;9779;51.756;7.450;2022-12-24T00:09:57;12.87;;;4.77;;
19291;SDS011;9779;51.756;7.450;2022-12-24T00:12:23;11.93;;;4.00;;
19291;SDS011;9779;51.756;7.450;2022-12-24T00:14:49;15.60;;;4.63;;
19291;SDS011;9779;51.756;7.450;2022-12-24T00:17:15;10.90;;;3.87;;
19291;SDS011;9779;51.756;7.450;2022-12-24T00:19:41;16.27;;;4.57;;
19291;SDS011;9779;51.756;7.450;2022-12-24T00:22:07;14.57;;;4.13;;
19291;SDS011;9779;51.756;7.450;2022-12-24T00:24:33;28.30;;;4.93;;
19291;SDS011;9779;51.756;7.450;2022-12-24T00:26:59;14.23;;;4.30;;
19291;SDS011;9779;51.756;7.450;2022-12-24T00:29:24;17.90;;;4.50;;
19291;SDS011;9779;51.756;7.450;2022-12-24T00:31:50;12.53;;;4.53;;
19291;SDS011;9779;51.756;7.450;2022-12-24T00:34:15;18.67;;;4.70;;
19291;SDS011;9779;51.756;7.450;2022-12-24T00:36:41;18.03;;;4.53;;
19291;SDS011;9779;51.756;7.450;2022-12-24T00:39:06;20.30;;;4.20;;
19291;SDS011;9779;51.756;7.450;2022-12-24T00:41:32;15.40;;;4.30;;
19291;SDS011;9779;51.756;7.450;2022-12-24T00:43:58;19.23;;;5.00;;
19291;SDS011;9779;51.756;7.450;2022-12-24T00:46:26;17.93;;;5.00;;
19291;SDS011;9779;51.756;7.450;2022-12-24T00:48:53;22.67;;;5.07;;
19291;SDS011;9779;51.756;7.450;2022-12-24T00:51:19;22.37;;;4.33;;
19291;SDS011;9779;51.756;7.450;2022-12-24T00:53:46;18.40;;;5.07;;
19291;SDS011;9779;51.756;7.450;2022-12-24T00:56:12;20.33;;;4.33;;
19291;SDS011;9779;51.756;7.450;2022-12-24T00:58:38;26.60;;;4.73;;
19291;SDS011;9779;51.756;7.450;2022-12-24T01:01:03;29.33;;;4.17;;
19291;SDS011;9779;51.756;7.450;2022-12-24T01:03:29;18.87;;;5.00;;
19291;SDS011;9779;51.756;7.450;2022-12-24T01:06:02;16.40;;;4.23;;
19291;SDS011;9779;51.756;7.450;2022-12-24T01:08:29;23.63;;;4.93;;
19291;SDS011;9779;51.756;7.450;2022-12-24T01:10:55;21.40;;;4.80;;
19291;SDS011;9779;51.756;7.450;2022-12-24T01:13:20;23.17;;;4.20;;
19291;SDS011;9779;51.756;7.450;2022-12-24T01:15:46;28.77;;;5.00;;
19291;SDS011;9779;51.756;7.450;2022-12-24T01:18:11;28.50;;;4.93;;
19291;SDS011;9779;51.756;7.450;2022-12-24T01:20:37;20.23;;;4.50;;
19291;SDS011;9779;51.756;7.450;2022-12-24T01:23:02;26.87;;;5.80;;
19291;SDS011;9779;51.756;7.450;2022-12-24T01:25:28;21.10;;;4.43;;
19291;SDS011;9779;51.756;7.450;2022-12-24T01:27:53;23.80;;;5.20;;
19291;SDS011;9779;51.756;7.450;2022-12-24T01:30:19;24.50;;;4.30;;
19291;SDS011;9779;51.756;7.450;2022-12-24T01:32:45;28.00;;;5.37;;
19291;SDS011;9779;51.756;7.450;2022-12-24T01:35:10;23.43;;;5.10;;
19291;SDS011;9779;51.756;7.450;2022-12-24T01:37:36;36.07;;;5.27;;
19291;SDS011;9779;51.756;7.450;2022-12-24T01:40:03;19.47;;;4.77;;
19291;SDS011;9779;51.756;7.450;2022-12-24T01:42:48;24.47;;;4.40;;
19291;SDS011;9779;51.756;7.450;2022-12-24T01:45:42;31.83;;;5.17;;
19291;SDS011;9779;51.756;7.450;2022-12-24T01:48:24;29.37;;;5.17;;
19291;SDS011;9779;51.756;7.450;2022-12-24T01:51:00;28.77;;;4.63;;
19291;SDS011;9779;51.756;7.450;2022-12-24T01:53:48;17.13;;;4.27;;
19291;SDS011;9779;51.756;7.450;2022-12-24T01:56:52;15.83;;;5.07;;
19291;SDS011;9779;51.756;7.450;2022-12-24T01:59:22;17.47;;;4.83;;
19291;SDS011;9779;51.756;7.450;2022-12-24T02:01:48;25.20;;;4.40;;
19291;SDS011;9779;51.756;7.450;2022-12-24T02:04:27;34.80;;;4.83;;
19291;SDS011;9779;51.756;7.450;2022-12-24T02:06:57;29.20;;;5.67;;
19291;SDS011;9779;51.756;7.450;2022-12-24T02:09:22;29.50;;;6.37;;
19291;SDS011;9779;51.756;7.450;2022-12-24T02:11:48;32.63;;;5.30;;
19291;SDS011;9779;51.756;7.450;2022-12-24T02:14:14;32.77;;;4.90;;
19291;SDS011;9779;51.756;7.450;2022-12-24T02:16:43;25.43;;;5.63;;
19291;SDS011;9779;51.756;7.450;2022-12-24T02:19:42;33.17;;;5.43;;
19291;SDS011;9779;51.756;7.450;2022-12-24T02:25:04;24.47;;;4.40;;
19291;SDS011;9779;51.756;7.450;2022-12-24T02:27:53;36.10;;;5.90;;
19291;SDS011;9779;51.756;7.450;2022-12-24T02:30:44;25.73;;;4.60;;
19291;SDS011;9779;51.756;7.450;2022-12-24T02:33:24;23.37;;;6.57;;
19291;SDS011;9779;51.756;7.450;2022-12-24T02:36:08;26.40;;;4.90;;
19291;SDS011;9779;51.756;7.450;2022-12-24T02:38:40;37.37;;;5.70;;
19291;SDS011;9779;51.756;7.450;2022-12-24T02:41:18;35.47;;;6.10;;
19291;SDS011;9779;51.756;7.450;2022-12-24T02:43:47;34.73;;;6.30;;
19291;SDS011;9779;51.756;7.450;2022-12-24T02:46:19;28.37;;;5.40;;
19291;SDS011;9779;51.756;7.450;2022-12-24T02:48:48;30.10;;;4.70;;
19291;SDS011;9779;51.756;7.450;2022-12-24T02:51:15;33.30;;;5.00;;
19291;SDS011;9779;51.756;7.450;2022-12-24T02:53:41;30.70;;;4.97;;
19291;SDS011;9779;51.756;7.450;2022-12-24T02:58:58;28.03;;;5.50;;
19291;SDS011;9779;51.756;7.450;2022-12-24T03:01:54;25.70;;;4.97;;
19291;SDS011;9779;51.756;7.450;2022-12-24T03:07:36;27.80;;;5.43;;
19291;SDS011;9779;51.756;7.450;2022-12-24T03:10:23;31.27;;;5.27;;
19291;SDS011;9779;51.756;7.450;2022-12-24T03:12:56;24.83;;;5.43;;
19291;SDS011;9779;51.756;7.450;2022-12-24T03:15:26;29.00;;;5.57;;
19291;SDS011;9779;51.756;7.450;2022-12-24T03:17:55;24.20;;;5.03;;
19291;SDS011;9779;51.756;7.450;2022-12-24T03:20:24;18.03;;;5.03;;
19291;SDS011;9779;51.756;7.450;2022-12-24T03:22:57;27.73;;;5.70;;
19291;SDS011;9779;51.756;7.450;2022-12-24T03:25:23;26.63;;;4.70;;
19291;SDS011;9779;51.756;7.450;2022-12-24T03:27:50;20.73;;;4.57;;
19291;SDS011;9779;51.756;7.450;2022-12-24T03:30:17;19.37;;;4.60;;
19291;SDS011;9779;51.756;7.450;2022-12-24T03:32:42;29.00;;;5.23;;
19291;SDS011;9779;51.756;7.450;2022-12-24T03:35:08;26.80;;;5.83;;
19291;SDS011;9779;51.756;7.450;2022-12-24T03:37:35;25.87;;;5.07;;
19291;SDS011;9779;51.756;7.450;2022-12-24T03:40:02;30.03;;;5.93;;
19291;SDS011;9779;51.756;7.450;2022-12-24T03:42:29;21.83;;;5.27;;
19291;SDS011;9779;51.756;7.450;2022-12-24T03:44:54;31.93;;;5.47;;
19291;SDS011;9779;51.756;7.450;2022-12-24T03:47:20;25.43;;;5.57;;
19291;SDS011;9779;51.756;7.450;2022-12-24T03:49:45;23.63;;;5.27;;
19291;SDS011;9779;51.756;7.450;2022-12-24T03:52:11;25.40;;;5.33;;
19291;SDS011;9779;51.756;7.450;2022-12-24T03:54:36;25.83;;;4.83;;
19291;SDS011;9779;51.756;7.450;2022-12-24T03:57:02;34.40;;;5.47;;
19291;SDS011;9779;51.756;7.450;2022-12-24T03:59:27;29.93;;;5.57;;
19291;SDS011;9779;51.756;7.450;2022-12-24T04:01:53;30.63;;;6.27;;
19291;SDS011;9779;51.756;7.450;2022-12-24T04:04:18;27.13;;;5.37;;
19291;SDS011;9779;51.756;7.450;2022-12-24T04:06:44;23.63;;;4.97;;
19291;SDS011;9779;51.756;7.450;2022-12-24T04:09:10;29.70;;;5.70;;
19291;SDS011;9779;51.756;7.450;2022-12-24T04:11:35;29.03;;;5.87;;
19291;SDS011;9779;51.756;7.450;2022-12-24T04:14:01;23.43;;;5.93;;
19291;SDS011;9779;51.756;7.450;2022-12-24T04:16:26;31.60;;;5.87;;
19291;SDS011;9779;51.756;7.450;2022-12-24T04:18:52;25.70;;;5.53;;
19291;SDS011;9779;51.756;7.450;2022-12-24T04:21:17;26.10;;;5.67;;
19291;SDS011;9779;51.756;7.450;2022-12-24T04:23:44;28.63;;;5.57;;
19291;SDS011;9779;51.756;7.450;2022-12-24T04:26:10;29.27;;;5.77;;
19291;SDS011;9779;51.756;7.450;2022-12-24T04:28:37;33.43;;;7.17;;
19291;SDS011;9779;51.756;7.450;2022-12-24T04:31:04;34.03;;;6.60;;
19291;SDS011;9779;51.756;7.450;2022-12-24T04:33:32;32.13;;;6.40;;
19291;SDS011;9779;51.756;7.450;2022-12-24T04:35:59;25.77;;;6.20;;
19291;SDS011;9779;51.756;7.450;2022-12-24T04:38:26;38.97;;;6.43;;
19291;SDS011;9779;51.756;7.450;2022-12-24T04:41:03;29.03;;;5.97;;
19291;SDS011;9779;51.756;7.450;2022-12-24T04:43:42;41.60;;;6.43;;
19291;SDS011;9779;51.756;7.450;2022-12-24T04:46:09;25.83;;;6.80;;
19291;SDS011;9779;51.756;7.450;2022-12-24T04:48:38;37.43;;;7.23;;
19291;SDS011;9779;51.756;7.450;2022-12-24T04:51:05;24.33;;;5.77;;
19291;SDS011;9779;51.756;7.450;2022-12-24T04:53:32;36.13;;;5.97;;
19291;SDS011;9779;51.756;7.450;2022-12-24T04:55:58;33.97;;;6.17;;
19291;SDS011;9779;51.756;7.450;2022-12-24T04:58:24;41.83;;;6.97;;
19291;SDS011;9779;51.756;7.450;2022-12-24T05:00:50;28.73;;;6.17;;
19291;SDS011;9779;51.756;7.450;2022-12-24T05:03:15;28.53;;;5.90;;
19291;SDS011;9779;51.756;7.450;2022-12-24T05:05:41;31.10;;;6.00;;
19291;SDS011;9779;51.756;7.450;2022-12-24T05:08:07;33.20;;;5.93;;
19291;SDS011;9779;51.756;7.450;2022-12-24T05:10:32;27.37;;;5.80;;
19291;SDS011;9779;51.756;7.450;2022-12-24T05:12:58;32.97;;;5.93;;
19291;SDS011;9779;51.756;7.450;2022-12-24T05:15:23;29.77;;;6.47;;
19291;SDS011;9779;51.756;7.450;2022-12-24T05:17:49;25.13;;;5.40;;
19291;SDS011;9779;51.756;7.450;2022-12-24T05:20:15;26.43;;;5.70;;
19291;SDS011;9779;51.756;7.450;2022-12-24T05:22:41;19.23;;;5.60;;
19291;SDS011;9779;51.756;7.450;2022-12-24T05:25:26;34.77;;;5.90;;
19291;SDS011;9779;51.756;7.450;2022-12-24T05:28:20;32.57;;;5.73;;
19291;SDS011;9779;51.756;7.450;2022-12-24T05:30:46;24.93;;;5.87;;
19291;SDS011;9779;51.756;7.450;2022-12-24T05:33:11;26.33;;;5.87;;
19291;SDS011;9779;51.756;7.450;2022-12-24T05:35:37;28.67;;;5.70;;
19291;SDS011;9779;51.756;7.450;2022-12-24T05:38:02;25.73;;;5.83;;
19291;SDS011;9779;51.756;7.450;2022-12-24T05:40:28;33.77;;;6.00;;
19291;SDS011;9779;51.756;7.450;2022-12-24T05:42:53;34.67;;;6.70;;
19291;SDS011;9779;51.756;7.450;2022-12-24T05:45:19;36.73;;;6.37;;
19291;SDS011;9779;51.756;7.450;2022-12-24T05:47:44;33.30;;;6.63;;
19291;SDS011;9779;51.756;7.450;2022-12-24T05:50:10;29.37;;;7.10;;
19291;SDS011;9779;51.756;7.450;2022-12-24T05:52:36;27.10;;;5.53;;
19291;SDS011;9779;51.756;7.450;2022-12-24T05:55:01;41.07;;;7.13;;
19291;SDS011;9779;51.756;7.450;2022-12-24T05:57:27;27.63;;;6.60;;
19291;SDS011;9779;51.756;7.450;2022-12-24T05:59:52;24.27;;;5.97;;
19291;SDS011;9779;51.756;7.450;2022-12-24T06:02:18;27.50;;;5.53;;
19291;SDS011;9779;51.756;7.450;2022-12-24T06:04:44;28.43;;;5.10;;
19291;SDS011;9779;51.756;7.450;2022-12-24T06:07:09;29.00;;;5.77;;
19291;SDS011;9779;51.756;7.450;2022-12-24T06:09:35;23.80;;;6.10;;
19291;SDS011;9779;51.756;7.450;2022-12-24T06:12:00;23.47;;;5.80;;
19291;SDS011;9779;51.756;7.450;2022-12-24T06:14:26;28.57;;;5.57;;
19291;SDS011;9779;51.756;7.450;2022-12-24T06:16:51;26.53;;;4.97;;
19291;SDS011;9779;51.756;7.450;2022-12-24T06:19:17;28.30;;;6.53;;
19291;SDS011;9779;51.756;7.450;2022-12-24T06:21:42;25.47;;;5.73;;
19291;SDS011;9779;51.756;7.450;2022-12-24T06:24:08;17.43;;;5.27;;
19291;SDS011;9779;51.756;7.450;2022-12-24T06:26:33;21.07;;;5.40;;
19291;SDS011;9779;51.756;7.450;2022-12-24T06:28:59;21.50;;;6.07;;
19291;SDS011;9779;51.756;7.450;2022-12-24T06:31:24;14.70;;;4.70;;
19291;SDS011;9779;51.756;7.450;2022-12-24T06:33:51;27.03;;;5.40;;
19291;SDS011;9779;51.756;7.450;2022-12-24T06:36:18;18.43;;;4.73;;
19291;SDS011;9779;51.756;7.450;2022-12-24T06:38:46;21.90;;;5.00;;
19291;SDS011;9779;51.756;7.450;2022-12-24T06:41:12;22.13;;;5.23;;
19291;SDS011;9779;51.756;7.450;2022-12-24T06:43:38;24.43;;;5.47;;
19291;SDS011;9779;51.756;7.450;2022-12-24T06:46:08;18.97;;;4.37;;
19291;SDS011;9779;51.756;7.450;2022-12-24T06:48:34;20.40;;;4.87;;
19291;SDS011;9779;51.756;7.450;2022-12-24T06:51:02;21.17;;;4.03;;
19291;SDS011;9779;51.756;7.450;2022-12-24T06:53:28;23.13;;;4.90;;
19291;SDS011;9779;51.756;7.450;2022-12-24T06:56:04;17.20;;;4.37;;
19291;SDS011;9779;51.756;7.450;2022-12-24T06:58:31;15.30;;;4.30;;
19291;SDS011;9779;51.756;7.450;2022-12-24T07:01:01;21.50;;;4.73;;
19291;SDS011;9779;51.756;7.450;2022-12-24T07:03:28;19.83;;;5.03;;
19291;SDS011;9779;51.756;7.450;2022-12-24T07:05:54;17.27;;;4.67;;
19291;SDS011;9779;51.756;7.450;2022-12-24T07:08:19;25.23;;;5.53;;
19291;SDS011;9779;51.756;7.450;2022-12-24T07:10:45;25.03;;;5.33;;
19291;SDS011;9779;51.756;7.450;2022-12-24T07:13:12;17.10;;;4.57;;
19291;SDS011;9779;51.756;7.450;2022-12-24T07:15:38;32.93;;;5.37;;
19291;SDS011;9779;51.756;7.450;2022-12-24T07:18:04;14.13;;;4.13;;
19291;SDS011;9779;51.756;7.450;2022-12-24T07:20:29;22.90;;;5.70;;
19291;SDS011;9779;51.756;7.450;2022-12-24T07:22:55;17.20;;;4.50;;
19291;SDS011;9779;51.756;7.450;2022-12-24T07:25:20;23.17;;;6.07;;
19291;SDS011;9779;51.756;7.450;2022-12-24T07:27:46;18.07;;;5.37;;
19291;SDS011;9779;51.756;7.450;2022-12-24T07:30:11;18.77;;;5.50;;
19291;SDS011;9779;51.756;7.450;2022-12-24T07:32:37;21.67;;;5.00;;
19291;SDS011;9779;51.756;7.450;2022-12-24T07:35:02;24.63;;;4.70;;
19291;SDS011;9779;51.756;7.450;2022-12-24T07:37:28;19.60;;;5.30;;
19291;SDS011;9779;51.756;7.450;2022-12-24T07:39:54;25.17;;;4.43;;
19291;SDS011;9779;51.756;7.450;2022-12-24T07:42:20;28.53;;;5.17;;
19291;SDS011;9779;51.756;7.450;2022-12-24T07:44:45;22.73;;;5.30;;
19291;SDS011;9779;51.756;7.450;2022-12-24T07:47:11;21.83;;;5.50;;
19291;SDS011;9779;51.756;7.450;2022-12-24T07:49:36;17.43;;;4.67;;
19291;SDS011;9779;51.756;7.450;2022-12-24T07:52:02;15.40;;;4.37;;
19291;SDS011;9779;51.756;7.450;2022-12-24T07:54:28;22.97;;;4.67;;
19291;SDS011;9779;51.756;7.450;2022-12-24T07:56:53;20.63;;;5.17;;
19291;SDS011;9779;51.756;7.450;2022-12-24T07:59:19;23.60;;;5.00;;
19291;SDS011;9779;51.756;7.450;2022-12-24T08:01:45;14.80;;;4.23;;
19291;SDS011;9779;51.756;7.450;2022-12-24T08:04:11;26.27;;;5.33;;
19291;SDS011;9779;51.756;7.450;2022-12-24T08:06:36;18.33;;;4.97;;
19291;SDS011;9779;51.756;7.450;2022-12-24T08:09:02;27.13;;;5.50;;
19291;SDS011;9779;51.756;7.450;2022-12-24T08:11:28;20.80;;;4.53;;
19291;SDS011;9779;51.756;7.450;2022-12-24T08:13:53;29.00;;;6.20;;
19291;SDS011;9779;51.756;7.450;2022-12-24T08:16:19;23.20;;;5.60;;
19291;SDS011;9779;51.756;7.450;2022-12-24T08:18:45;26.77;;;5.03;;
19291;SDS011;9779;51.756;7.450;2022-12-24T08:21:10;31.43;;;5.13;;
19291;SDS011;9779;51.756;7.450;2022-12-24T08:23:36;21.50;;;5.13;;
19291;SDS011;9779;51.756;7.450;2022-12-24T08:26:01;23.30;;;4.90;;
19291;SDS011;9779;51.756;7.450;2022-12-24T08:28:27;18.37;;;4.70;;
19291;SDS011;9779;51.756;7.450;2022-12-24T08:30:53;26.77;;;5.07;;
19291;SDS011;9779;51.756;7.450;2022-12-24T08:33:19;14.73;;;4.50;;
19291;SDS011;9779;51.756;7.450;2022-12-24T08:35:47;17.77;;;4.10;;
19291;SDS011;9779;51.756;7.450;2022-12-24T08:38:13;16.67;;;4.20;;
19291;SDS011;9779;51.756;7.450;2022-12-24T08:40:38;22.67;;;5.43;;
19291;SDS011;9779;51.756;7.450;2022-12-24T08:43:04;19.97;;;5.27;;
19291;SDS011;9779;51.756;7.450;2022-12-24T08:45:30;20.53;;;4.37;;
19291;SDS011;9779;51.756;7.450;2022-12-24T08:47:57;21.57;;;4.37;;
19291;SDS011;9779;51.756;7.450;2022-12-24T08:50:23;17.40;;;4.93;;
19291;SDS011;9779;51.756;7.450;2022-12-24T08:52:48;23.47;;;4.60;;
19291;SDS011;9779;51.756;7.450;2022-12-24T08:55:14;22.53;;;4.70;;
19291;SDS011;9779;51.756;7.450;2022-12-24T08:57:39;24.37;;;4.80;;
19291;SDS011;9779;51.756;7.450;2022-12-24T09:00:05;18.27;;;4.23;;
19291;SDS011;9779;51.756;7.450;2022-12-24T09:02:32;22.90;;;4.67;;
19291;SDS011;9779;51.756;7.450;2022-12-24T09:04:57;22.13;;;4.63;;
19291;SDS011;9779;51.756;7.450;2022-12-24T09:07:23;22.97;;;5.00;;
19291;SDS011;9779;51.756;7.450;2022-12-24T09:09:49;21.73;;;4.40;;
19291;SDS011;9779;51.756;7.450;2022-12-24T09:12:14;32.33;;;5.23;;
19291;SDS011;9779;51.756;7.450;2022-12-24T09:14:40;21.37;;;5.17;;
19291;SDS011;9779;51.756;7.450;2022-12-24T09:17:06;20.97;;;4.73;;
19291;SDS011;9779;51.756;7.450;2022-12-24T09:19:31;22.60;;;4.27;;
19291;SDS011;9779;51.756;7.450;2022-12-24T09:21:57;22.90;;;5.33;;
19291;SDS011;9779;51.756;7.450;2022-12-24T09:24:22;19.17;;;5.00;;
19291;SDS011;9779;51.756;7.450;2022-12-24T09:26:48;32.10;;;5.23;;
19291;SDS011;9779;51.756;7.450;2022-12-24T09:29:14;33.03;;;6.67;;
19291;SDS011;9779;51.756;7.450;2022-12-24T09:31:40;17.83;;;5.93;;
19291;SDS011;9779;51.756;7.450;2022-12-24T09:34:07;24.40;;;5.57;;
19291;SDS011;9779;51.756;7.450;2022-12-24T09:36:33;24.20;;;4.83;;
19291;SDS011;9779;51.756;7.450;2022-12-24T09:38:59;24.23;;;4.80;;
19291;SDS011;9779;51.756;7.450;2022-12-24T09:42:02;29.37;;;5.23;;
19291;SDS011;9779;51.756;7.450;2022-12-24T09:44:50;30.17;;;5.37;;
19291;SDS011;9779;51.756;7.450;2022-12-24T09:47:32;28.03;;;5.47;;
19291;SDS011;9779;51.756;7.450;2022-12-24T09:50:03;25.63;;;5.77;;
19291;SDS011;9779;51.756;7.450;2022-12-24T09:52:53;26.63;;;5.67;;
19291;SDS011;9779;51.756;7.450;2022-12-24T09:55:28;25.23;;;5.43;;
19291;SDS011;9779;51.756;7.450;2022-12-24T09:58:04;13.37;;;4.43;;
19291;SDS011;9779;51.756;7.450;2022-12-24T10:00:35;27.37;;;6.23;;
19291;SDS011;9779;51.756;7.450;2022-12-24T10:03:10;24.23;;;5.93;;
19291;SDS011;9779;51.756;7.450;2022-12-24T10:05:42;25.70;;;6.00;;
19291;SDS011;9779;51.756;7.450;2022-12-24T10:08:26;26.77;;;5.90;;
19291;SDS011;9779;51.756;7.450;2022-12-24T10:11:21;21.70;;;5.47;;
19291;SDS011;9779;51.756;7.450;2022-12-24T10:13:54;30.07;;;5.47;;
19291;SDS011;9779;51.756;7.450;2022-12-24T10:16:32;26.57;;;5.17;;
19291;SDS011;9779;51.756;7.450;2022-12-24T10:19:04;22.50;;;5.03;;
19291;SDS011;9779;51.756;7.450;2022-12-24T10:24:23;19.57;;;5.83;;
19291;SDS011;9779;51.756;7.450;2022-12-24T10:27:13;27.53;;;4.70;;
19291;SDS011;9779;51.756;7.450;2022-12-24T10:29:41;22.30;;;4.73;;
19291;SDS011;9779;51.756;7.450;2022-12-24T10:32:21;23.73;;;5.37;;
19291;SDS011;9779;51.756;7.450;2022-12-24T10:34:56;26.50;;;4.97;;
19291;SDS011;9779;51.756;7.450;2022-12-24T10:37:30;25.20;;;5.47;;
19291;SDS011;9779;51.756;7.450;2022-12-24T10:39:57;31.03;;;6.40;;
19291;SDS011;9779;51.756;7.450;2022-12-24T10:42:26;19.50;;;6.10;;
19291;SDS011;9779;51.756;7.450;2022-12-24T10:45:02;26.90;;;5.30;;
19291;SDS011;9779;51.756;7.450;2022-12-24T10:47:32;22.83;;;4.90;;
19291;SDS011;9779;51.756;7.450;2022-12-24T10:52:59;29.17;;;5.80;;
19291;SDS011;9779;51.756;7.450;2022-12-24T10:55:42;34.23;;;5.73;;
19291;SDS011;9779;51.756;7.450;2022-12-24T10:58:16;26.67;;;5.20;;
19291;SDS011;9779;51.756;7.450;2022-12-24T11:00:50;20.40;;;5.30;;
19291;SDS011;9779;51.756;7.450;2022-12-24T11:05:42;23.87;;;4.63;;
19291;SDS011;9779;51.756;7.450;2022-12-24T11:10:38;27.97;;;5.23;;
19291;SDS011;9779;51.756;7.450;2022-12-24T11:13:17;31.07;;;5.83;;
19291;SDS011;9779;51.756;7.450;2022-12-24T11:15:50;25.83;;;5.33;;
19291;SDS011;9779;51.756;7.450;2022-12-24T11:18:25;21.20;;;5.13;;
19291;SDS011;9779;51.756;7.450;2022-12-24T11:20:51;28.53;;;5.33;;
19291;SDS011;9779;51.756;7.450;2022-12-24T11:23:17;26.90;;;5.30;;
19291;SDS011;9779;51.756;7.450;2022-12-24T11:25:47;28.57;;;5.00;;
19291;SDS011;9779;51.756;7.450;2022-12-24T11:28:19;23.17;;;5.23;;
19291;SDS011;9779;51.756;7.450;2022-12-24T11:30:57;16.50;;;4.77;;
19291;SDS011;9779;51.756;7.450;2022-12-24T11:33:25;25.50;;;4.30;;
19291;SDS011;9779;51.756;7.450;2022-12-24T11:36:04;19.70;;;5.27;;
19291;SDS011;9779;51.756;7.450;2022-12-24T11:38:35;19.63;;;5.50;;
19291;SDS011;9779;51.756;7.450;2022-12-24T11:41:06;27.77;;;5.70;;
19291;SDS011;9779;51.756;7.450;2022-12-24T11:43:39;24.67;;;5.33;;
19291;SDS011;9779;51.756;7.450;2022-12-24T11:46:17;19.40;;;5.27;;
19291;SDS011;9779;51.756;7.450;2022-12-24T11:51:35;21.47;;;5.00;;
19291;SDS011;9779;51.756;7.450;2022-12-24T11:54:15;20.27;;;4.83;;
19291;SDS011;9779;51.756;7.450;2022-12-24T11:56:48;15.33;;;4.23;;
19291;SDS011;9779;51.756;7.450;2022-12-24T12:02:18;21.13;;;4.53;;
19291;SDS011;9779;51.756;7.450;2022-12-24T12:04:53;24.90;;;5.20;;
19291;SDS011;9779;51.756;7.450;2022-12-24T12:07:29;23.07;;;5.37;;
19291;SDS011;9779;51.756;7.450;2022-12-24T12:12:45;16.47;;;5.23;;
19291;SDS011;9779;51.756;7.450;2022-12-24T12:15:32;26.37;;;6.33;;
19291;SDS011;9779;51.756;7.450;2022-12-24T12:20:38;30.70;;;5.23;;
19291;SDS011;9779;51.756;7.450;2022-12-24T12:23:19;27.10;;;6.13;;
19291;SDS011;9779;51.756;7.450;2022-12-24T12:26:03;29.07;;;6.20;;
19291;SDS011;9779;51.756;7.450;2022-12-24T12:28:40;24.33;;;5.43;;
19291;SDS011;9779;51.756;7.450;2022-12-24T12:31:16;24.97;;;5.70;;
19291;SDS011;9779;51.756;7.450;2022-12-24T12:36:45;18.07;;;4.47;;
19291;SDS011;9779;51.756;7.450;2022-12-24T12:39:15;32.20;;;6.50;;
19291;SDS011;9779;51.756;7.450;2022-12-24T12:44:40;21.30;;;5.03;;
19291;SDS011;9779;51.756;7.450;2022-12-24T12:52:50;22.97;;;4.77;;
19291;SDS011;9779;51.756;7.450;2022-12-24T12:58:32;25.07;;;6.10;;
19291;SDS011;9779;51.756;7.450;2022-12-24T13:01:22;26.43;;;5.87;;
19291;SDS011;9779;51.756;7.450;2022-12-24T13:07:23;23.83;;;5.13;;
19291;SDS011;9779;51.756;7.450;2022-12-24T13:10:07;18.33;;;5.13;;
19291;SDS011;9779;51.756;7.450;2022-12-24T13:12:50;23.30;;;4.90;;
19291;SDS011;9779;51.756;7.450;2022-12-24T13:18:37;12.83;;;4.23;;
19291;SDS011;9779;51.756;7.450;2022-12-24T13:21:25;30.00;;;6.17;;
19291;SDS011;9779;51.756;7.450;2022-12-24T13:24:03;21.47;;;5.97;;
19291;SDS011;9779;51.756;7.450;2022-12-24T13:26:39;16.83;;;5.33;;
19291;SDS011;9779;51.756;7.450;2022-12-24T13:29:50;26.33;;;6.23;;
19291;SDS011;9779;51.756;7.450;2022-12-24T13:32:10;22.50;;;5.20;;
19291;SDS011;9779;51.756;7.450;2022-12-24T13:34:46;26.30;;;4.87;;
19291;SDS011;9779;51.756;7.450;2022-12-24T13:37:25;29.53;;;4.97;;
19291;SDS011;9779;51.756;7.450;2022-12-24T13:47:57;22.17;;;5.43;;
19291;SDS011;9779;51.756;7.450;2022-12-24T13:50:28;29.00;;;5.03;;
19291;SDS011;9779;51.756;7.450;2022-12-24T13:53:02;27.87;;;4.90;;
19291;SDS011;9779;51.756;7.450;2022-12-24T13:55:29;21.60;;;5.27;;
19291;SDS011;9779;51.756;7.450;2022-12-24T13:57:56;23.00;;;4.87;;
19291;SDS011;9779;51.756;7.450;2022-12-24T14:00:28;21.80;;;4.53;;
19291;SDS011;9779;51.756;7.450;2022-12-24T14:03:00;27.93;;;5.60;;
19291;SDS011;9779;51.756;7.450;2022-12-24T14:08:08;21.17;;;4.70;;
19291;SDS011;9779;51.756;7.450;2022-12-24T14:10:38;22.60;;;5.10;;
19291;SDS011;9779;51.756;7.450;2022-12-24T14:18:45;18.10;;;5.10;;
19291;SDS011;9779;51.756;7.450;2022-12-24T14:21:19;22.47;;;5.47;;
19291;SDS011;9779;51.756;7.450;2022-12-24T14:23:56;15.97;;;4.80;;
19291;SDS011;9779;51.756;7.450;2022-12-24T14:26:34;24.17;;;4.87;;
19291;SDS011;9779;51.756;7.450;2022-12-24T14:29:27;14.60;;;4.37;;
19291;SDS011;9779;51.756;7.450;2022-12-24T14:31:56;17.00;;;4.70;;
19291;SDS011;9779;51.756;7.450;2022-12-24T14:34:23;24.00;;;4.40;;
19291;SDS011;9779;51.756;7.450;2022-12-24T14:36:50;16.27;;;4.70;;
19291;SDS011;9779;51.756;7.450;2022-12-24T14:39:28;11.53;;;4.17;;
19291;SDS011;9779;51.756;7.450;2022-12-24T14:52:09;19.80;;;4.77;;
19291;SDS011;9779;51.756;7.450;2022-12-24T14:54:38;20.60;;;4.47;;
19291;SDS011;9779;51.756;7.450;2022-12-24T15:02:29;24.27;;;6.23;;
19291;SDS011;9779;51.756;7.450;2022-12-24T15:05:09;23.03;;;5.33;;
19291;SDS011;9779;51.756;7.450;2022-12-24T15:07:41;20.53;;;5.43;;
19291;SDS011;9779;51.756;7.450;2022-12-24T15:10:24;26.77;;;5.30;;
19291;SDS011;9779;51.756;7.450;2022-12-24T15:12:55;15.77;;;4.83;;
19291;SDS011;9779;51.756;7.450;2022-12-24T15:15:22;18.57;;;4.77;;
19291;SDS011;9779;51.756;7.450;2022-12-24T15:17:48;20.87;;;5.27;;
19291;SDS011;9779;51.756;7.450;2022-12-24T15:20:18;20.83;;;4.80;;
19291;SDS011;9779;51.756;7.450;2022-12-24T15:22:49;17.37;;;4.30;;
19291;SDS011;9779;51.756;7.450;2022-12-24T15:25:21;21.97;;;5.87;;
19291;SDS011;9779;51.756;7.450;2022-12-24T15:27:48;20.17;;;5.00;;
19291;SDS011;9779;51.756;7.450;2022-12-24T15:30:15;16.97;;;4.87;;
19291;SDS011;9779;51.756;7.450;2022-12-24T15:32:43;18.17;;;5.13;;
19291;SDS011;9779;51.756;7.450;2022-12-24T15:37:56;18.30;;;5.23;;
19291;SDS011;9779;51.756;7.450;2022-12-24T15:40:23;18.87;;;4.90;;
19291;SDS011;9779;51.756;7.450;2022-12-24T15:42:49;25.97;;;6.17;;
19291;SDS011;9779;51.756;7.450;2022-12-24T15:45:16;20.07;;;5.37;;
19291;SDS011;9779;51.756;7.450;2022-12-24T15:47:45;24.00;;;7.03;;
19291;SDS011;9779;51.756;7.450;2022-12-24T15:53:01;21.93;;;6.23;;
19291;SDS011;9779;51.756;7.450;2022-12-24T15:55:43;17.60;;;5.03;;
19291;SDS011;9779;51.756;7.450;2022-12-24T15:58:17;18.77;;;4.90;;
19291;SDS011;9779;51.756;7.450;2022-12-24T16:06:15;23.70;;;5.53;;
19291;SDS011;9779;51.756;7.450;2022-12-24T16:08:42;16.23;;;5.20;;
19291;SDS011;9779;51.756;7.450;2022-12-24T16:11:09;16.17;;;5.53;;
19291;SDS011;9779;51.756;7.450;2022-12-24T16:13:43;18.37;;;5.33;;
19291;SDS011;9779;51.756;7.450;2022-12-24T16:16:16;26.37;;;6.73;;
19291;SDS011;9779;51.756;7.450;2022-12-24T16:18:51;18.30;;;5.53;;
19291;SDS011;9779;51.756;7.450;2022-12-24T16:21:25;12.77;;;4.83;;
19291;SDS011;9779;51.756;7.450;2022-12-24T16:24:14;16.23;;;5.23;;
19291;SDS011;9779;51.756;7.450;2022-12-24T16:26:53;24.00;;;5.20;;
19291;SDS011;9779;51.756;7.450;2022-12-24T16:29:19;18.83;;;4.97;;
19291;SDS011;9779;51.756;7.450;2022-12-24T16:31:53;27.27;;;11.60;;
19291;SDS011;9779;51.756;7.450;2022-12-24T16:34:24;42.33;;;16.57;;
19291;SDS011;9779;51.756;7.450;2022-12-24T16:36:52;30.43;;;12.30;;
19291;SDS011;9779;51.756;7.450;2022-12-24T16:39:19;19.80;;;8.50;;